オウル の空港の天気 - METARとTAF

オウル空港 ( EFOU / OUL ) - フィンランド Oulunsalo
飛行場実況気象(Metar)
観測時間07/17 12:20 EEST (07/17 09:20 UTC)
風向・風速南 5m/s
視程10km以上
天気現象
なし
気温30℃
湿度33%
気圧1019hPa
METAREFOU 170920Z AUTO 17009KT 140V200 CAVOK 30/12 Q1019
過去の天気等 Google飛行場航空写真 Wunderground天気予報

過去48時間のMETAR

飛行場予報(TAF)
発表時間: 7/17 11:24 EEST (7/17 08:24 UTC)
予報対象時間: 17日12時 EEST ~ 18日12時 EEST
風向・風速東南東 1m/s
視程10km以上
なし
TAF EFOU 170824Z 1709/1809 11002KT CAVOK